sensor_id;sensor_type;location;lat;lon;timestamp;P1;durP1;ratioP1;P2;durP2;ratioP2
15996;SDS011;8103;51.340;12.326;2022-11-15T00:00:56;17.88;;;10.43;;
15996;SDS011;8103;51.340;12.326;2022-11-15T00:03:27;20.60;;;13.93;;
15996;SDS011;8103;51.340;12.326;2022-11-15T00:05:54;17.55;;;11.75;;
15996;SDS011;8103;51.340;12.326;2022-11-15T00:08:21;17.98;;;12.85;;
15996;SDS011;8103;51.340;12.326;2022-11-15T00:11:22;17.23;;;12.65;;
15996;SDS011;8103;51.340;12.326;2022-11-15T00:13:42;16.38;;;10.55;;
15996;SDS011;8103;51.340;12.326;2022-11-15T00:16:09;14.40;;;10.48;;
15996;SDS011;8103;51.340;12.326;2022-11-15T00:18:37;12.10;;;9.50;;
15996;SDS011;8103;51.340;12.326;2022-11-15T00:21:05;15.98;;;11.40;;
15996;SDS011;8103;51.340;12.326;2022-11-15T00:23:33;13.10;;;10.23;;
15996;SDS011;8103;51.340;12.326;2022-11-15T00:26:00;13.07;;;10.27;;
15996;SDS011;8103;51.340;12.326;2022-11-15T00:28:27;13.05;;;9.93;;
15996;SDS011;8103;51.340;12.326;2022-11-15T00:31:05;13.23;;;10.02;;
15996;SDS011;8103;51.340;12.326;2022-11-15T00:33:33;14.43;;;10.88;;
15996;SDS011;8103;51.340;12.326;2022-11-15T00:36:01;13.18;;;10.38;;
15996;SDS011;8103;51.340;12.326;2022-11-15T00:38:32;14.80;;;10.85;;
15996;SDS011;8103;51.340;12.326;2022-11-15T00:41:01;13.52;;;9.65;;
15996;SDS011;8103;51.340;12.326;2022-11-15T00:43:34;16.10;;;10.63;;
15996;SDS011;8103;51.340;12.326;2022-11-15T00:46:01;14.32;;;10.50;;
15996;SDS011;8103;51.340;12.326;2022-11-15T00:48:28;11.13;;;9.32;;
15996;SDS011;8103;51.340;12.326;2022-11-15T00:50:55;13.23;;;9.60;;
15996;SDS011;8103;51.340;12.326;2022-11-15T00:53:22;12.30;;;9.38;;
15996;SDS011;8103;51.340;12.326;2022-11-15T00:55:49;11.20;;;8.68;;
15996;SDS011;8103;51.340;12.326;2022-11-15T00:58:16;13.43;;;9.55;;
15996;SDS011;8103;51.340;12.326;2022-11-15T01:00:43;13.93;;;9.35;;
15996;SDS011;8103;51.340;12.326;2022-11-15T01:03:10;14.18;;;10.02;;
15996;SDS011;8103;51.340;12.326;2022-11-15T01:05:37;15.25;;;11.30;;
15996;SDS011;8103;51.340;12.326;2022-11-15T01:08:04;13.95;;;9.95;;
15996;SDS011;8103;51.340;12.326;2022-11-15T01:10:31;12.75;;;9.82;;
15996;SDS011;8103;51.340;12.326;2022-11-15T01:12:58;16.42;;;9.77;;
15996;SDS011;8103;51.340;12.326;2022-11-15T01:15:24;13.45;;;9.07;;
15996;SDS011;8103;51.340;12.326;2022-11-15T01:17:51;17.70;;;10.65;;
15996;SDS011;8103;51.340;12.326;2022-11-15T01:20:18;13.63;;;10.00;;
15996;SDS011;8103;51.340;12.326;2022-11-15T01:22:45;15.15;;;9.43;;
15996;SDS011;8103;51.340;12.326;2022-11-15T01:25:12;15.00;;;10.73;;
15996;SDS011;8103;51.340;12.326;2022-11-15T01:27:39;12.77;;;10.65;;
15996;SDS011;8103;51.340;12.326;2022-11-15T01:30:05;15.38;;;11.18;;
15996;SDS011;8103;51.340;12.326;2022-11-15T01:32:34;15.05;;;10.23;;
15996;SDS011;8103;51.340;12.326;2022-11-15T01:35:01;12.20;;;10.05;;
15996;SDS011;8103;51.340;12.326;2022-11-15T01:37:27;15.05;;;9.40;;
15996;SDS011;8103;51.340;12.326;2022-11-15T01:39:54;12.73;;;10.32;;
15996;SDS011;8103;51.340;12.326;2022-11-15T01:42:21;13.02;;;9.95;;
15996;SDS011;8103;51.340;12.326;2022-11-15T01:44:49;12.45;;;10.05;;
15996;SDS011;8103;51.340;12.326;2022-11-15T01:47:19;12.30;;;9.25;;
15996;SDS011;8103;51.340;12.326;2022-11-15T01:52:24;10.13;;;8.27;;
15996;SDS011;8103;51.340;12.326;2022-11-15T01:55:00;16.48;;;10.70;;
15996;SDS011;8103;51.340;12.326;2022-11-15T01:57:34;12.18;;;8.73;;
15996;SDS011;8103;51.340;12.326;2022-11-15T02:00:01;12.38;;;9.63;;
15996;SDS011;8103;51.340;12.326;2022-11-15T02:02:30;14.30;;;9.93;;
15996;SDS011;8103;51.340;12.326;2022-11-15T02:04:59;13.00;;;8.93;;
15996;SDS011;8103;51.340;12.326;2022-11-15T02:07:26;12.93;;;9.90;;
15996;SDS011;8103;51.340;12.326;2022-11-15T02:09:54;11.60;;;9.10;;
15996;SDS011;8103;51.340;12.326;2022-11-15T02:12:24;15.07;;;9.57;;
15996;SDS011;8103;51.340;12.326;2022-11-15T02:14:54;13.75;;;9.93;;
15996;SDS011;8103;51.340;12.326;2022-11-15T02:28:44;13.93;;;9.13;;
15996;SDS011;8103;51.340;12.326;2022-11-15T02:34:28;13.00;;;9.00;;
15996;SDS011;8103;51.340;12.326;2022-11-15T02:42:31;14.10;;;9.75;;
15996;SDS011;8103;51.340;12.326;2022-11-15T02:45:27;13.95;;;10.13;;
15996;SDS011;8103;51.340;12.326;2022-11-15T02:48:05;17.20;;;10.48;;
15996;SDS011;8103;51.340;12.326;2022-11-15T02:50:34;15.93;;;9.68;;
15996;SDS011;8103;51.340;12.326;2022-11-15T02:53:02;13.93;;;9.25;;
15996;SDS011;8103;51.340;12.326;2022-11-15T02:55:33;14.07;;;9.95;;
15996;SDS011;8103;51.340;12.326;2022-11-15T02:58:08;10.68;;;8.80;;
15996;SDS011;8103;51.340;12.326;2022-11-15T03:01:02;14.90;;;9.50;;
15996;SDS011;8103;51.340;12.326;2022-11-15T03:09:10;13.32;;;9.18;;
15996;SDS011;8103;51.340;12.326;2022-11-15T03:11:51;14.30;;;9.70;;
15996;SDS011;8103;51.340;12.326;2022-11-15T03:14:35;13.13;;;9.07;;
15996;SDS011;8103;51.340;12.326;2022-11-15T03:17:11;10.90;;;7.93;;
15996;SDS011;8103;51.340;12.326;2022-11-15T03:19:52;12.63;;;9.43;;
15996;SDS011;8103;51.340;12.326;2022-11-15T03:22:23;11.88;;;8.38;;
15996;SDS011;8103;51.340;12.326;2022-11-15T03:24:53;10.05;;;8.20;;
15996;SDS011;8103;51.340;12.326;2022-11-15T03:27:27;11.63;;;7.88;;
15996;SDS011;8103;51.340;12.326;2022-11-15T03:30:00;11.60;;;7.97;;
15996;SDS011;8103;51.340;12.326;2022-11-15T03:32:31;9.10;;;6.88;;
15996;SDS011;8103;51.340;12.326;2022-11-15T03:35:04;13.73;;;8.52;;
15996;SDS011;8103;51.340;12.326;2022-11-15T03:37:42;11.98;;;8.10;;
15996;SDS011;8103;51.340;12.326;2022-11-15T03:40:25;9.95;;;7.75;;
15996;SDS011;8103;51.340;12.326;2022-11-15T03:45:58;9.82;;;7.60;;
15996;SDS011;8103;51.340;12.326;2022-11-15T03:48:30;9.43;;;7.72;;
15996;SDS011;8103;51.340;12.326;2022-11-15T03:51:03;10.57;;;7.75;;
15996;SDS011;8103;51.340;12.326;2022-11-15T03:53:30;10.10;;;7.38;;
15996;SDS011;8103;51.340;12.326;2022-11-15T03:55:58;14.60;;;7.55;;
15996;SDS011;8103;51.340;12.326;2022-11-15T03:58:25;9.57;;;7.57;;
15996;SDS011;8103;51.340;12.326;2022-11-15T04:00:52;10.50;;;8.95;;
15996;SDS011;8103;51.340;12.326;2022-11-15T04:03:18;11.18;;;8.23;;
15996;SDS011;8103;51.340;12.326;2022-11-15T04:05:45;12.23;;;7.80;;
15996;SDS011;8103;51.340;12.326;2022-11-15T04:08:12;10.05;;;7.82;;
15996;SDS011;8103;51.340;12.326;2022-11-15T04:10:39;8.25;;;6.88;;
15996;SDS011;8103;51.340;12.326;2022-11-15T04:13:06;12.10;;;7.93;;
15996;SDS011;8103;51.340;12.326;2022-11-15T04:15:33;10.13;;;7.15;;
15996;SDS011;8103;51.340;12.326;2022-11-15T04:18:00;12.00;;;8.23;;
15996;SDS011;8103;51.340;12.326;2022-11-15T04:20:27;8.88;;;7.20;;
15996;SDS011;8103;51.340;12.326;2022-11-15T04:23:16;10.57;;;7.47;;
15996;SDS011;8103;51.340;12.326;2022-11-15T04:26:07;10.05;;;7.40;;
15996;SDS011;8103;51.340;12.326;2022-11-15T04:28:38;11.52;;;7.68;;
15996;SDS011;8103;51.340;12.326;2022-11-15T04:31:23;10.73;;;7.47;;
15996;SDS011;8103;51.340;12.326;2022-11-15T04:33:50;9.88;;;7.07;;
15996;SDS011;8103;51.340;12.326;2022-11-15T04:36:17;9.73;;;7.35;;
15996;SDS011;8103;51.340;12.326;2022-11-15T04:39:04;10.38;;;8.35;;
15996;SDS011;8103;51.340;12.326;2022-11-15T04:41:30;13.75;;;7.80;;
15996;SDS011;8103;51.340;12.326;2022-11-15T04:43:58;9.90;;;7.38;;
15996;SDS011;8103;51.340;12.326;2022-11-15T04:46:25;11.90;;;8.52;;
15996;SDS011;8103;51.340;12.326;2022-11-15T04:48:52;9.85;;;7.15;;
15996;SDS011;8103;51.340;12.326;2022-11-15T04:51:23;10.52;;;8.05;;
15996;SDS011;8103;51.340;12.326;2022-11-15T04:53:50;12.10;;;7.38;;
15996;SDS011;8103;51.340;12.326;2022-11-15T04:56:17;11.95;;;7.80;;
15996;SDS011;8103;51.340;12.326;2022-11-15T04:58:44;12.82;;;8.70;;
15996;SDS011;8103;51.340;12.326;2022-11-15T05:01:12;7.68;;;6.30;;
15996;SDS011;8103;51.340;12.326;2022-11-15T05:03:41;9.88;;;7.68;;
15996;SDS011;8103;51.340;12.326;2022-11-15T05:06:27;9.48;;;6.90;;
15996;SDS011;8103;51.340;12.326;2022-11-15T05:08:54;8.75;;;6.60;;
15996;SDS011;8103;51.340;12.326;2022-11-15T05:11:21;11.10;;;7.00;;
15996;SDS011;8103;51.340;12.326;2022-11-15T05:13:48;9.93;;;7.18;;
15996;SDS011;8103;51.340;12.326;2022-11-15T05:16:15;10.15;;;8.23;;
15996;SDS011;8103;51.340;12.326;2022-11-15T05:18:42;11.48;;;7.85;;
15996;SDS011;8103;51.340;12.326;2022-11-15T05:21:11;10.95;;;7.50;;
15996;SDS011;8103;51.340;12.326;2022-11-15T05:23:40;9.25;;;7.78;;
15996;SDS011;8103;51.340;12.326;2022-11-15T05:26:07;10.10;;;8.10;;
15996;SDS011;8103;51.340;12.326;2022-11-15T05:28:35;14.73;;;8.65;;
15996;SDS011;8103;51.340;12.326;2022-11-15T05:33:31;11.25;;;7.70;;
15996;SDS011;8103;51.340;12.326;2022-11-15T05:36:04;11.15;;;7.72;;
15996;SDS011;8103;51.340;12.326;2022-11-15T05:38:31;11.18;;;7.72;;
15996;SDS011;8103;51.340;12.326;2022-11-15T05:41:02;12.85;;;8.68;;
15996;SDS011;8103;51.340;12.326;2022-11-15T05:43:30;12.60;;;8.73;;
15996;SDS011;8103;51.340;12.326;2022-11-15T05:46:00;13.25;;;9.48;;
15996;SDS011;8103;51.340;12.326;2022-11-15T05:48:29;11.30;;;9.32;;
15996;SDS011;8103;51.340;12.326;2022-11-15T05:50:57;12.70;;;9.02;;
15996;SDS011;8103;51.340;12.326;2022-11-15T05:53:24;12.63;;;9.00;;
15996;SDS011;8103;51.340;12.326;2022-11-15T05:55:52;14.75;;;9.15;;
15996;SDS011;8103;51.340;12.326;2022-11-15T05:58:19;13.57;;;9.15;;
15996;SDS011;8103;51.340;12.326;2022-11-15T06:00:46;9.75;;;7.85;;
15996;SDS011;8103;51.340;12.326;2022-11-15T06:03:14;12.98;;;8.18;;
15996;SDS011;8103;51.340;12.326;2022-11-15T06:05:40;11.95;;;8.20;;
15996;SDS011;8103;51.340;12.326;2022-11-15T06:08:07;13.38;;;9.15;;
15996;SDS011;8103;51.340;12.326;2022-11-15T06:10:34;11.18;;;8.52;;
15996;SDS011;8103;51.340;12.326;2022-11-15T06:13:02;13.50;;;9.70;;
15996;SDS011;8103;51.340;12.326;2022-11-15T06:15:31;14.82;;;9.23;;
15996;SDS011;8103;51.340;12.326;2022-11-15T06:17:59;12.25;;;9.30;;
15996;SDS011;8103;51.340;12.326;2022-11-15T06:20:27;10.18;;;8.35;;
15996;SDS011;8103;51.340;12.326;2022-11-15T06:22:58;10.52;;;8.02;;
15996;SDS011;8103;51.340;12.326;2022-11-15T06:25:27;9.25;;;7.50;;
15996;SDS011;8103;51.340;12.326;2022-11-15T06:27:55;9.95;;;8.07;;
15996;SDS011;8103;51.340;12.326;2022-11-15T06:30:23;10.73;;;7.68;;
15996;SDS011;8103;51.340;12.326;2022-11-15T06:32:51;13.48;;;7.72;;
15996;SDS011;8103;51.340;12.326;2022-11-15T06:35:24;10.50;;;8.20;;
15996;SDS011;8103;51.340;12.326;2022-11-15T06:37:51;12.85;;;8.25;;
15996;SDS011;8103;51.340;12.326;2022-11-15T06:40:18;16.05;;;8.55;;
15996;SDS011;8103;51.340;12.326;2022-11-15T06:42:47;13.73;;;8.68;;
15996;SDS011;8103;51.340;12.326;2022-11-15T06:45:14;13.88;;;7.82;;
15996;SDS011;8103;51.340;12.326;2022-11-15T06:47:47;13.82;;;8.60;;
15996;SDS011;8103;51.340;12.326;2022-11-15T06:50:14;12.05;;;8.93;;
15996;SDS011;8103;51.340;12.326;2022-11-15T06:52:41;11.00;;;8.20;;
15996;SDS011;8103;51.340;12.326;2022-11-15T06:55:08;15.25;;;9.43;;
15996;SDS011;8103;51.340;12.326;2022-11-15T06:57:35;11.10;;;8.07;;
15996;SDS011;8103;51.340;12.326;2022-11-15T07:00:04;13.10;;;9.75;;
15996;SDS011;8103;51.340;12.326;2022-11-15T07:02:31;12.98;;;8.90;;
15996;SDS011;8103;51.340;12.326;2022-11-15T07:04:58;9.88;;;8.02;;
15996;SDS011;8103;51.340;12.326;2022-11-15T07:07:25;13.88;;;8.43;;
15996;SDS011;8103;51.340;12.326;2022-11-15T07:09:52;11.30;;;8.15;;
15996;SDS011;8103;51.340;12.326;2022-11-15T07:12:19;11.13;;;8.18;;
15996;SDS011;8103;51.340;12.326;2022-11-15T07:14:46;9.15;;;7.80;;
15996;SDS011;8103;51.340;12.326;2022-11-15T07:17:13;8.63;;;6.90;;
15996;SDS011;8103;51.340;12.326;2022-11-15T07:19:40;16.77;;;9.57;;
15996;SDS011;8103;51.340;12.326;2022-11-15T07:22:07;13.45;;;9.05;;
15996;SDS011;8103;51.340;12.326;2022-11-15T07:24:34;11.93;;;8.27;;
15996;SDS011;8103;51.340;12.326;2022-11-15T07:27:00;10.13;;;8.45;;
15996;SDS011;8103;51.340;12.326;2022-11-15T07:29:27;14.05;;;9.35;;
15996;SDS011;8103;51.340;12.326;2022-11-15T07:31:54;10.68;;;8.13;;
15996;SDS011;8103;51.340;12.326;2022-11-15T07:34:21;10.90;;;7.97;;
15996;SDS011;8103;51.340;12.326;2022-11-15T07:36:48;11.13;;;8.00;;
15996;SDS011;8103;51.340;12.326;2022-11-15T07:39:15;11.15;;;7.68;;
15996;SDS011;8103;51.340;12.326;2022-11-15T07:41:42;11.70;;;7.43;;
15996;SDS011;8103;51.340;12.326;2022-11-15T07:44:09;10.00;;;8.15;;
15996;SDS011;8103;51.340;12.326;2022-11-15T07:46:36;12.48;;;7.20;;
15996;SDS011;8103;51.340;12.326;2022-11-15T07:49:04;11.43;;;8.00;;
15996;SDS011;8103;51.340;12.326;2022-11-15T07:51:31;9.80;;;7.18;;
15996;SDS011;8103;51.340;12.326;2022-11-15T07:53:57;9.07;;;6.93;;
15996;SDS011;8103;51.340;12.326;2022-11-15T07:56:27;8.70;;;6.13;;
15996;SDS011;8103;51.340;12.326;2022-11-15T07:58:54;16.42;;;7.93;;
15996;SDS011;8103;51.340;12.326;2022-11-15T08:01:20;10.30;;;6.85;;
15996;SDS011;8103;51.340;12.326;2022-11-15T08:03:47;8.73;;;6.85;;
15996;SDS011;8103;51.340;12.326;2022-11-15T08:06:14;10.38;;;6.80;;
15996;SDS011;8103;51.340;12.326;2022-11-15T08:08:41;8.60;;;6.80;;
15996;SDS011;8103;51.340;12.326;2022-11-15T08:11:08;8.70;;;6.72;;
15996;SDS011;8103;51.340;12.326;2022-11-15T08:13:36;10.30;;;7.78;;
15996;SDS011;8103;51.340;12.326;2022-11-15T08:16:03;8.25;;;6.03;;
15996;SDS011;8103;51.340;12.326;2022-11-15T08:18:31;8.18;;;6.28;;
15996;SDS011;8103;51.340;12.326;2022-11-15T08:20:59;8.48;;;6.95;;
15996;SDS011;8103;51.340;12.326;2022-11-15T08:23:27;10.82;;;7.35;;
15996;SDS011;8103;51.340;12.326;2022-11-15T08:25:58;10.68;;;7.63;;
15996;SDS011;8103;51.340;12.326;2022-11-15T08:28:26;8.68;;;6.85;;
15996;SDS011;8103;51.340;12.326;2022-11-15T08:30:53;8.95;;;6.47;;
15996;SDS011;8103;51.340;12.326;2022-11-15T08:33:20;9.82;;;6.30;;
15996;SDS011;8103;51.340;12.326;2022-11-15T08:35:47;6.28;;;5.50;;
15996;SDS011;8103;51.340;12.326;2022-11-15T08:38:14;9.55;;;6.28;;
15996;SDS011;8103;51.340;12.326;2022-11-15T08:40:41;8.75;;;6.32;;
15996;SDS011;8103;51.340;12.326;2022-11-15T08:43:08;6.40;;;5.22;;
15996;SDS011;8103;51.340;12.326;2022-11-15T08:45:35;7.03;;;4.90;;
15996;SDS011;8103;51.340;12.326;2022-11-15T08:48:02;8.07;;;5.25;;
15996;SDS011;8103;51.340;12.326;2022-11-15T08:50:30;6.75;;;5.03;;
15996;SDS011;8103;51.340;12.326;2022-11-15T08:53:03;7.25;;;5.30;;
15996;SDS011;8103;51.340;12.326;2022-11-15T08:55:31;7.53;;;5.57;;
15996;SDS011;8103;51.340;12.326;2022-11-15T08:57:58;6.07;;;5.38;;
15996;SDS011;8103;51.340;12.326;2022-11-15T09:00:25;7.45;;;4.93;;
15996;SDS011;8103;51.340;12.326;2022-11-15T09:02:52;5.00;;;4.20;;
15996;SDS011;8103;51.340;12.326;2022-11-15T09:05:19;5.20;;;4.60;;
15996;SDS011;8103;51.340;12.326;2022-11-15T09:07:46;8.35;;;4.95;;
15996;SDS011;8103;51.340;12.326;2022-11-15T09:10:13;6.78;;;4.78;;
15996;SDS011;8103;51.340;12.326;2022-11-15T09:12:39;7.30;;;5.25;;
15996;SDS011;8103;51.340;12.326;2022-11-15T09:15:07;10.63;;;7.00;;
15996;SDS011;8103;51.340;12.326;2022-11-15T09:17:34;7.55;;;6.75;;
15996;SDS011;8103;51.340;12.326;2022-11-15T09:20:01;8.13;;;6.10;;
15996;SDS011;8103;51.340;12.326;2022-11-15T09:22:29;7.90;;;6.10;;
15996;SDS011;8103;51.340;12.326;2022-11-15T09:24:56;7.20;;;5.05;;
15996;SDS011;8103;51.340;12.326;2022-11-15T09:27:26;6.55;;;5.75;;
15996;SDS011;8103;51.340;12.326;2022-11-15T09:29:54;5.43;;;4.93;;
15996;SDS011;8103;51.340;12.326;2022-11-15T09:32:21;4.75;;;3.47;;
15996;SDS011;8103;51.340;12.326;2022-11-15T09:34:51;4.32;;;3.92;;
15996;SDS011;8103;51.340;12.326;2022-11-15T09:37:18;4.32;;;3.92;;
15996;SDS011;8103;51.340;12.326;2022-11-15T09:39:45;4.50;;;3.65;;
15996;SDS011;8103;51.340;12.326;2022-11-15T09:47:51;4.00;;;3.63;;
15996;SDS011;8103;51.340;12.326;2022-11-15T09:50:45;3.78;;;3.45;;
15996;SDS011;8103;51.340;12.326;2022-11-15T09:53:34;5.65;;;4.13;;
15996;SDS011;8103;51.340;12.326;2022-11-15T09:56:48;3.88;;;2.95;;
15996;SDS011;8103;51.340;12.326;2022-11-15T10:04:34;4.55;;;3.92;;
15996;SDS011;8103;51.340;12.326;2022-11-15T10:07:13;5.82;;;3.65;;
15996;SDS011;8103;51.340;12.326;2022-11-15T10:09:47;4.28;;;3.45;;
15996;SDS011;8103;51.340;12.326;2022-11-15T10:12:35;4.03;;;3.40;;
15996;SDS011;8103;51.340;12.326;2022-11-15T10:15:03;3.80;;;3.42;;
15996;SDS011;8103;51.340;12.326;2022-11-15T10:20:25;5.43;;;4.05;;
15996;SDS011;8103;51.340;12.326;2022-11-15T10:22:55;6.50;;;3.17;;
15996;SDS011;8103;51.340;12.326;2022-11-15T10:25:29;3.75;;;3.40;;
15996;SDS011;8103;51.340;12.326;2022-11-15T10:30:31;5.10;;;3.78;;
15996;SDS011;8103;51.340;12.326;2022-11-15T10:33:23;4.32;;;3.83;;
15996;SDS011;8103;51.340;12.326;2022-11-15T10:41:35;8.10;;;4.47;;
15996;SDS011;8103;51.340;12.326;2022-11-15T10:44:10;4.07;;;3.33;;
15996;SDS011;8103;51.340;12.326;2022-11-15T10:46:38;10.05;;;4.78;;
15996;SDS011;8103;51.340;12.326;2022-11-15T10:49:22;5.15;;;3.53;;
15996;SDS011;8103;51.340;12.326;2022-11-15T10:52:04;5.30;;;3.15;;
15996;SDS011;8103;51.340;12.326;2022-11-15T10:54:58;4.45;;;3.85;;
15996;SDS011;8103;51.340;12.326;2022-11-15T10:57:36;3.63;;;3.05;;
15996;SDS011;8103;51.340;12.326;2022-11-15T11:00:06;5.93;;;3.55;;
15996;SDS011;8103;51.340;12.326;2022-11-15T11:07:56;6.20;;;3.47;;
15996;SDS011;8103;51.340;12.326;2022-11-15T11:10:25;5.75;;;3.65;;
15996;SDS011;8103;51.340;12.326;2022-11-15T11:13:13;10.02;;;4.35;;
15996;SDS011;8103;51.340;12.326;2022-11-15T11:18:56;7.57;;;4.45;;
15996;SDS011;8103;51.340;12.326;2022-11-15T11:24:35;6.47;;;3.72;;
15996;SDS011;8103;51.340;12.326;2022-11-15T11:27:19;4.03;;;3.35;;
15996;SDS011;8103;51.340;12.326;2022-11-15T11:30:10;3.67;;;3.33;;
15996;SDS011;8103;51.340;12.326;2022-11-15T11:32:50;4.55;;;2.95;;
15996;SDS011;8103;51.340;12.326;2022-11-15T11:38:07;4.70;;;2.55;;
15996;SDS011;8103;51.340;12.326;2022-11-15T11:40:43;3.72;;;3.10;;
15996;SDS011;8103;51.340;12.326;2022-11-15T11:43:36;4.82;;;2.95;;
15996;SDS011;8103;51.340;12.326;2022-11-15T11:49:18;6.88;;;2.83;;
15996;SDS011;8103;51.340;12.326;2022-11-15T11:52:08;4.50;;;2.70;;
15996;SDS011;8103;51.340;12.326;2022-11-15T11:55:15;2.95;;;2.65;;
15996;SDS011;8103;51.340;12.326;2022-11-15T11:58:33;4.32;;;2.88;;
15996;SDS011;8103;51.340;12.326;2022-11-15T12:00:49;5.45;;;2.95;;
15996;SDS011;8103;51.340;12.326;2022-11-15T12:09:03;8.68;;;3.60;;
15996;SDS011;8103;51.340;12.326;2022-11-15T12:12:44;3.67;;;3.15;;
15996;SDS011;8103;51.340;12.326;2022-11-15T12:14:46;5.47;;;3.53;;
15996;SDS011;8103;51.340;12.326;2022-11-15T12:17:21;3.35;;;3.00;;
15996;SDS011;8103;51.340;12.326;2022-11-15T12:19:57;4.53;;;3.72;;
15996;SDS011;8103;51.340;12.326;2022-11-15T12:22:43;5.28;;;4.55;;
15996;SDS011;8103;51.340;12.326;2022-11-15T12:28:15;6.13;;;3.50;;
15996;SDS011;8103;51.340;12.326;2022-11-15T12:31:11;6.13;;;3.60;;
15996;SDS011;8103;51.340;12.326;2022-11-15T12:33:46;5.13;;;3.33;;
15996;SDS011;8103;51.340;12.326;2022-11-15T12:38:57;3.10;;;2.70;;
15996;SDS011;8103;51.340;12.326;2022-11-15T12:41:32;4.13;;;2.75;;
15996;SDS011;8103;51.340;12.326;2022-11-15T12:44:01;2.95;;;2.65;;
15996;SDS011;8103;51.340;12.326;2022-11-15T12:48:57;4.65;;;2.63;;
15996;SDS011;8103;51.340;12.326;2022-11-15T12:54:59;5.13;;;2.35;;
15996;SDS011;8103;51.340;12.326;2022-11-15T13:02:31;2.97;;;2.35;;
15996;SDS011;8103;51.340;12.326;2022-11-15T13:20:22;4.13;;;2.50;;
15996;SDS011;8103;51.340;12.326;2022-11-15T13:23:01;2.75;;;2.35;;
15996;SDS011;8103;51.340;12.326;2022-11-15T13:26:27;3.10;;;2.50;;
15996;SDS011;8103;51.340;12.326;2022-11-15T13:28:44;2.25;;;2.05;;
15996;SDS011;8103;51.340;12.326;2022-11-15T13:31:20;3.80;;;2.33;;
15996;SDS011;8103;51.340;12.326;2022-11-15T13:34:22;3.25;;;2.55;;
15996;SDS011;8103;51.340;12.326;2022-11-15T13:39:49;3.95;;;2.15;;
15996;SDS011;8103;51.340;12.326;2022-11-15T13:42:19;3.83;;;1.98;;
15996;SDS011;8103;51.340;12.326;2022-11-15T13:44:57;3.30;;;2.67;;
15996;SDS011;8103;51.340;12.326;2022-11-15T13:47:26;4.60;;;1.70;;
15996;SDS011;8103;51.340;12.326;2022-11-15T13:49:59;4.93;;;2.33;;
15996;SDS011;8103;51.340;12.326;2022-11-15T13:52:35;4.28;;;2.10;;
15996;SDS011;8103;51.340;12.326;2022-11-15T13:55:13;3.70;;;2.55;;
15996;SDS011;8103;51.340;12.326;2022-11-15T13:57:46;2.40;;;2.20;;
15996;SDS011;8103;51.340;12.326;2022-11-15T14:00:30;3.17;;;2.22;;
15996;SDS011;8103;51.340;12.326;2022-11-15T14:03:10;2.90;;;2.55;;
15996;SDS011;8103;51.340;12.326;2022-11-15T14:08:29;3.22;;;2.92;;
15996;SDS011;8103;51.340;12.326;2022-11-15T14:11:12;2.75;;;2.47;;
15996;SDS011;8103;51.340;12.326;2022-11-15T14:16:39;3.95;;;3.30;;
15996;SDS011;8103;51.340;12.326;2022-11-15T14:19:50;5.22;;;3.70;;
15996;SDS011;8103;51.340;12.326;2022-11-15T14:24:37;4.70;;;3.17;;
15996;SDS011;8103;51.340;12.326;2022-11-15T14:29:52;4.28;;;3.10;;
15996;SDS011;8103;51.340;12.326;2022-11-15T14:32:29;12.45;;;4.90;;
15996;SDS011;8103;51.340;12.326;2022-11-15T14:35:09;5.28;;;3.85;;
15996;SDS011;8103;51.340;12.326;2022-11-15T14:37:48;6.53;;;4.60;;
15996;SDS011;8103;51.340;12.326;2022-11-15T14:40:19;6.32;;;4.25;;
15996;SDS011;8103;51.340;12.326;2022-11-15T14:42:48;6.97;;;4.43;;
15996;SDS011;8103;51.340;12.326;2022-11-15T14:45:16;6.22;;;4.40;;
15996;SDS011;8103;51.340;12.326;2022-11-15T14:47:46;9.35;;;6.57;;
15996;SDS011;8103;51.340;12.326;2022-11-15T14:50:14;6.43;;;5.63;;
15996;SDS011;8103;51.340;12.326;2022-11-15T14:52:46;5.75;;;4.60;;
15996;SDS011;8103;51.340;12.326;2022-11-15T14:55:21;6.80;;;4.05;;
15996;SDS011;8103;51.340;12.326;2022-11-15T14:57:55;4.40;;;3.95;;
15996;SDS011;8103;51.340;12.326;2022-11-15T15:00:23;4.43;;;4.00;;
15996;SDS011;8103;51.340;12.326;2022-11-15T15:02:51;5.57;;;3.97;;
15996;SDS011;8103;51.340;12.326;2022-11-15T15:05:24;6.47;;;4.20;;
15996;SDS011;8103;51.340;12.326;2022-11-15T15:07:51;5.93;;;3.55;;
15996;SDS011;8103;51.340;12.326;2022-11-15T15:10:21;4.13;;;3.42;;
15996;SDS011;8103;51.340;12.326;2022-11-15T15:13:05;4.63;;;3.60;;
15996;SDS011;8103;51.340;12.326;2022-11-15T15:15:33;4.30;;;3.08;;
15996;SDS011;8103;51.340;12.326;2022-11-15T15:18:03;4.95;;;4.45;;
15996;SDS011;8103;51.340;12.326;2022-11-15T15:20:31;7.70;;;4.45;;
15996;SDS011;8103;51.340;12.326;2022-11-15T15:22:58;4.95;;;4.43;;
15996;SDS011;8103;51.340;12.326;2022-11-15T15:25:30;5.07;;;3.83;;
15996;SDS011;8103;51.340;12.326;2022-11-15T15:27:59;5.55;;;4.35;;
15996;SDS011;8103;51.340;12.326;2022-11-15T15:30:29;5.55;;;3.90;;
15996;SDS011;8103;51.340;12.326;2022-11-15T15:32:56;8.02;;;5.38;;
15996;SDS011;8103;51.340;12.326;2022-11-15T15:35:24;8.38;;;5.78;;
15996;SDS011;8103;51.340;12.326;2022-11-15T15:37:56;7.05;;;5.80;;
15996;SDS011;8103;51.340;12.326;2022-11-15T15:40:23;6.93;;;5.75;;
15996;SDS011;8103;51.340;12.326;2022-11-15T15:42:51;7.18;;;5.95;;
15996;SDS011;8103;51.340;12.326;2022-11-15T15:45:18;10.02;;;7.18;;
15996;SDS011;8103;51.340;12.326;2022-11-15T15:47:46;9.45;;;6.90;;
15996;SDS011;8103;51.340;12.326;2022-11-15T15:52:56;8.20;;;5.72;;
15996;SDS011;8103;51.340;12.326;2022-11-15T15:55:26;13.57;;;8.27;;
15996;SDS011;8103;51.340;12.326;2022-11-15T15:57:56;29.90;;;14.35;;
15996;SDS011;8103;51.340;12.326;2022-11-15T16:00:24;20.35;;;10.77;;
15996;SDS011;8103;51.340;12.326;2022-11-15T16:02:52;18.27;;;10.80;;
15996;SDS011;8103;51.340;12.326;2022-11-15T16:05:20;17.35;;;10.63;;
15996;SDS011;8103;51.340;12.326;2022-11-15T16:07:48;21.33;;;10.27;;
15996;SDS011;8103;51.340;12.326;2022-11-15T16:12:54;12.85;;;8.35;;
15996;SDS011;8103;51.340;12.326;2022-11-15T16:15:22;11.55;;;7.18;;
15996;SDS011;8103;51.340;12.326;2022-11-15T16:17:56;13.88;;;8.07;;
15996;SDS011;8103;51.340;12.326;2022-11-15T16:22:59;13.07;;;9.38;;
15996;SDS011;8103;51.340;12.326;2022-11-15T16:25:43;12.95;;;7.97;;
15996;SDS011;8103;51.340;12.326;2022-11-15T16:28:21;13.43;;;8.77;;
15996;SDS011;8103;51.340;12.326;2022-11-15T16:30:49;12.57;;;8.85;;
15996;SDS011;8103;51.340;12.326;2022-11-15T16:33:26;17.40;;;10.82;;
15996;SDS011;8103;51.340;12.326;2022-11-15T16:35:53;21.30;;;13.05;;
15996;SDS011;8103;51.340;12.326;2022-11-15T16:38:20;18.90;;;11.55;;
15996;SDS011;8103;51.340;12.326;2022-11-15T16:40:46;20.58;;;13.23;;
15996;SDS011;8103;51.340;12.326;2022-11-15T16:43:13;20.58;;;14.13;;
15996;SDS011;8103;51.340;12.326;2022-11-15T16:45:42;28.20;;;17.30;;
15996;SDS011;8103;51.340;12.326;2022-11-15T16:48:42;24.63;;;14.90;;
15996;SDS011;8103;51.340;12.326;2022-11-15T16:51:02;19.38;;;13.85;;
15996;SDS011;8103;51.340;12.326;2022-11-15T16:53:30;22.08;;;13.10;;
15996;SDS011;8103;51.340;12.326;2022-11-15T16:55:57;18.23;;;12.43;;
15996;SDS011;8103;51.340;12.326;2022-11-15T16:58:24;22.85;;;13.30;;
15996;SDS011;8103;51.340;12.326;2022-11-15T17:00:51;18.38;;;10.90;;
15996;SDS011;8103;51.340;12.326;2022-11-15T17:03:22;18.38;;;11.70;;
15996;SDS011;8103;51.340;12.326;2022-11-15T17:05:53;16.48;;;11.77;;
15996;SDS011;8103;51.340;12.326;2022-11-15T17:08:33;17.30;;;12.70;;
15996;SDS011;8103;51.340;12.326;2022-11-15T17:11:03;23.55;;;12.73;;
15996;SDS011;8103;51.340;12.326;2022-11-15T17:13:32;17.10;;;11.98;;
15996;SDS011;8103;51.340;12.326;2022-11-15T17:16:03;16.48;;;11.38;;